sensor_id;sensor_type;location;lat;lon;timestamp;P1;durP1;ratioP1;P2;durP2;ratioP2
16612;SDS011;8419;52.358;9.752;2023-08-12T00:00:34;5.18;;;2.67;;
16612;SDS011;8419;52.358;9.752;2023-08-12T00:03:20;5.25;;;2.75;;
16612;SDS011;8419;52.358;9.752;2023-08-12T00:06:06;6.00;;;2.95;;
16612;SDS011;8419;52.358;9.752;2023-08-12T00:08:53;9.57;;;3.65;;
16612;SDS011;8419;52.358;9.752;2023-08-12T00:11:39;5.40;;;2.80;;
16612;SDS011;8419;52.358;9.752;2023-08-12T00:14:24;6.03;;;3.15;;
16612;SDS011;8419;52.358;9.752;2023-08-12T00:17:11;3.95;;;3.00;;
16612;SDS011;8419;52.358;9.752;2023-08-12T00:19:56;4.47;;;2.72;;
16612;SDS011;8419;52.358;9.752;2023-08-12T00:22:44;6.87;;;2.92;;
16612;SDS011;8419;52.358;9.752;2023-08-12T00:25:29;6.80;;;3.05;;
16612;SDS011;8419;52.358;9.752;2023-08-12T00:28:15;4.07;;;2.58;;
16612;SDS011;8419;52.358;9.752;2023-08-12T00:31:00;4.05;;;3.53;;
16612;SDS011;8419;52.358;9.752;2023-08-12T00:33:46;3.05;;;2.75;;
16612;SDS011;8419;52.358;9.752;2023-08-12T00:36:32;5.18;;;3.15;;
16612;SDS011;8419;52.358;9.752;2023-08-12T00:39:17;8.27;;;2.95;;
16612;SDS011;8419;52.358;9.752;2023-08-12T00:42:03;4.47;;;3.20;;
16612;SDS011;8419;52.358;9.752;2023-08-12T00:44:49;6.53;;;3.35;;
16612;SDS011;8419;52.358;9.752;2023-08-12T00:47:35;5.55;;;3.37;;
16612;SDS011;8419;52.358;9.752;2023-08-12T00:50:21;7.18;;;2.80;;
16612;SDS011;8419;52.358;9.752;2023-08-12T00:53:06;7.10;;;2.72;;
16612;SDS011;8419;52.358;9.752;2023-08-12T00:55:53;5.07;;;3.03;;
16612;SDS011;8419;52.358;9.752;2023-08-12T00:58:39;10.18;;;3.22;;
16612;SDS011;8419;52.358;9.752;2023-08-12T01:01:25;6.37;;;3.20;;
16612;SDS011;8419;52.358;9.752;2023-08-12T01:04:12;5.68;;;3.33;;
16612;SDS011;8419;52.358;9.752;2023-08-12T01:06:57;7.80;;;3.17;;
16612;SDS011;8419;52.358;9.752;2023-08-12T01:09:42;8.60;;;3.33;;
16612;SDS011;8419;52.358;9.752;2023-08-12T01:12:29;6.50;;;3.35;;
16612;SDS011;8419;52.358;9.752;2023-08-12T01:15:22;5.40;;;3.33;;
16612;SDS011;8419;52.358;9.752;2023-08-12T01:18:10;3.92;;;2.58;;
16612;SDS011;8419;52.358;9.752;2023-08-12T01:20:57;6.12;;;3.00;;
16612;SDS011;8419;52.358;9.752;2023-08-12T01:23:47;5.12;;;3.15;;
16612;SDS011;8419;52.358;9.752;2023-08-12T01:26:33;6.82;;;3.33;;
16612;SDS011;8419;52.358;9.752;2023-08-12T01:29:19;3.83;;;3.20;;
16612;SDS011;8419;52.358;9.752;2023-08-12T01:32:07;3.37;;;3.00;;
16612;SDS011;8419;52.358;9.752;2023-08-12T01:34:57;4.12;;;3.22;;
16612;SDS011;8419;52.358;9.752;2023-08-12T01:37:48;7.10;;;3.10;;
16612;SDS011;8419;52.358;9.752;2023-08-12T01:40:37;4.10;;;2.80;;
16612;SDS011;8419;52.358;9.752;2023-08-12T01:43:24;6.37;;;3.35;;
16612;SDS011;8419;52.358;9.752;2023-08-12T01:46:11;5.70;;;3.42;;
16612;SDS011;8419;52.358;9.752;2023-08-12T01:48:56;6.03;;;2.83;;
16612;SDS011;8419;52.358;9.752;2023-08-12T01:51:42;5.93;;;3.12;;
16612;SDS011;8419;52.358;9.752;2023-08-12T01:54:28;5.62;;;3.30;;
16612;SDS011;8419;52.358;9.752;2023-08-12T01:57:17;4.95;;;3.60;;
16612;SDS011;8419;52.358;9.752;2023-08-12T02:00:04;3.55;;;2.92;;
16612;SDS011;8419;52.358;9.752;2023-08-12T02:02:51;2.87;;;2.50;;
16612;SDS011;8419;52.358;9.752;2023-08-12T02:05:37;4.28;;;2.97;;
16612;SDS011;8419;52.358;9.752;2023-08-12T02:08:22;11.52;;;3.62;;
16612;SDS011;8419;52.358;9.752;2023-08-12T02:11:08;6.60;;;3.33;;
16612;SDS011;8419;52.358;9.752;2023-08-12T02:13:54;4.57;;;3.30;;
16612;SDS011;8419;52.358;9.752;2023-08-12T02:16:39;6.15;;;3.33;;
16612;SDS011;8419;52.358;9.752;2023-08-12T02:19:25;6.05;;;2.85;;
16612;SDS011;8419;52.358;9.752;2023-08-12T02:22:11;7.25;;;3.33;;
16612;SDS011;8419;52.358;9.752;2023-08-12T02:24:56;7.12;;;2.83;;
16612;SDS011;8419;52.358;9.752;2023-08-12T02:27:41;6.00;;;2.97;;
16612;SDS011;8419;52.358;9.752;2023-08-12T02:30:28;7.35;;;2.72;;
16612;SDS011;8419;52.358;9.752;2023-08-12T02:33:14;7.18;;;2.65;;
16612;SDS011;8419;52.358;9.752;2023-08-12T02:36:00;6.18;;;3.20;;
16612;SDS011;8419;52.358;9.752;2023-08-12T02:38:46;11.25;;;3.33;;
16612;SDS011;8419;52.358;9.752;2023-08-12T02:41:31;4.95;;;2.92;;
16612;SDS011;8419;52.358;9.752;2023-08-12T02:44:17;4.12;;;2.85;;
16612;SDS011;8419;52.358;9.752;2023-08-12T02:47:03;5.97;;;3.30;;
16612;SDS011;8419;52.358;9.752;2023-08-12T02:49:49;3.97;;;2.80;;
16612;SDS011;8419;52.358;9.752;2023-08-12T02:52:34;6.57;;;3.00;;
16612;SDS011;8419;52.358;9.752;2023-08-12T02:55:20;6.45;;;3.20;;
16612;SDS011;8419;52.358;9.752;2023-08-12T02:58:06;6.10;;;2.72;;
16612;SDS011;8419;52.358;9.752;2023-08-12T03:00:52;4.55;;;2.80;;
16612;SDS011;8419;52.358;9.752;2023-08-12T03:03:39;4.65;;;2.90;;
16612;SDS011;8419;52.358;9.752;2023-08-12T03:06:25;6.32;;;3.20;;
16612;SDS011;8419;52.358;9.752;2023-08-12T03:09:10;4.30;;;2.80;;
16612;SDS011;8419;52.358;9.752;2023-08-12T03:11:56;3.83;;;2.80;;
16612;SDS011;8419;52.358;9.752;2023-08-12T03:14:45;6.12;;;2.80;;
16612;SDS011;8419;52.358;9.752;2023-08-12T03:17:31;5.37;;;3.08;;
16612;SDS011;8419;52.358;9.752;2023-08-12T03:20:17;7.15;;;3.45;;
16612;SDS011;8419;52.358;9.752;2023-08-12T03:23:03;3.03;;;2.50;;
16612;SDS011;8419;52.358;9.752;2023-08-12T03:25:49;5.72;;;3.00;;
16612;SDS011;8419;52.358;9.752;2023-08-12T03:28:34;6.30;;;2.85;;
16612;SDS011;8419;52.358;9.752;2023-08-12T03:31:20;3.20;;;2.85;;
16612;SDS011;8419;52.358;9.752;2023-08-12T03:34:06;11.48;;;3.58;;
16612;SDS011;8419;52.358;9.752;2023-08-12T03:36:51;7.47;;;3.22;;
16612;SDS011;8419;52.358;9.752;2023-08-12T03:39:37;6.97;;;3.67;;
16612;SDS011;8419;52.358;9.752;2023-08-12T03:42:23;5.35;;;3.90;;
16612;SDS011;8419;52.358;9.752;2023-08-12T03:45:09;4.87;;;3.60;;
16612;SDS011;8419;52.358;9.752;2023-08-12T03:47:55;7.50;;;3.70;;
16612;SDS011;8419;52.358;9.752;2023-08-12T03:50:40;6.68;;;3.72;;
16612;SDS011;8419;52.358;9.752;2023-08-12T03:53:26;8.88;;;4.47;;
16612;SDS011;8419;52.358;9.752;2023-08-12T03:56:12;5.03;;;4.25;;
16612;SDS011;8419;52.358;9.752;2023-08-12T03:59:00;6.12;;;4.62;;
16612;SDS011;8419;52.358;9.752;2023-08-12T04:01:46;8.00;;;4.10;;
16612;SDS011;8419;52.358;9.752;2023-08-12T04:04:31;7.65;;;4.40;;
16612;SDS011;8419;52.358;9.752;2023-08-12T04:07:17;5.97;;;4.62;;
16612;SDS011;8419;52.358;9.752;2023-08-12T04:10:03;6.50;;;5.43;;
16612;SDS011;8419;52.358;9.752;2023-08-12T04:12:49;6.03;;;5.00;;
16612;SDS011;8419;52.358;9.752;2023-08-12T04:15:35;5.72;;;5.00;;
16612;SDS011;8419;52.358;9.752;2023-08-12T04:18:21;7.43;;;5.68;;
16612;SDS011;8419;52.358;9.752;2023-08-12T04:21:06;8.40;;;5.97;;
16612;SDS011;8419;52.358;9.752;2023-08-12T04:23:52;8.43;;;5.80;;
16612;SDS011;8419;52.358;9.752;2023-08-12T04:26:38;6.80;;;5.25;;
16612;SDS011;8419;52.358;9.752;2023-08-12T04:29:24;11.07;;;6.55;;
16612;SDS011;8419;52.358;9.752;2023-08-12T04:32:09;11.90;;;6.32;;
16612;SDS011;8419;52.358;9.752;2023-08-12T04:34:55;8.45;;;6.22;;
16612;SDS011;8419;52.358;9.752;2023-08-12T04:37:41;9.38;;;6.55;;
16612;SDS011;8419;52.358;9.752;2023-08-12T04:40:26;9.82;;;6.57;;
16612;SDS011;8419;52.358;9.752;2023-08-12T04:43:12;10.60;;;7.18;;
16612;SDS011;8419;52.358;9.752;2023-08-12T04:45:57;11.43;;;7.45;;
16612;SDS011;8419;52.358;9.752;2023-08-12T04:48:43;12.35;;;8.32;;
16612;SDS011;8419;52.358;9.752;2023-08-12T04:51:30;19.30;;;7.70;;
16612;SDS011;8419;52.358;9.752;2023-08-12T04:54:15;10.88;;;8.35;;
16612;SDS011;8419;52.358;9.752;2023-08-12T04:57:01;14.18;;;9.35;;
16612;SDS011;8419;52.358;9.752;2023-08-12T04:59:47;15.15;;;9.27;;
16612;SDS011;8419;52.358;9.752;2023-08-12T05:02:32;13.20;;;9.15;;
16612;SDS011;8419;52.358;9.752;2023-08-12T05:05:18;15.65;;;9.95;;
16612;SDS011;8419;52.358;9.752;2023-08-12T05:08:04;11.90;;;9.88;;
16612;SDS011;8419;52.358;9.752;2023-08-12T05:10:49;14.38;;;10.50;;
16612;SDS011;8419;52.358;9.752;2023-08-12T05:13:35;12.55;;;8.90;;
16612;SDS011;8419;52.358;9.752;2023-08-12T05:16:21;13.45;;;8.98;;
16612;SDS011;8419;52.358;9.752;2023-08-12T05:19:07;14.85;;;9.50;;
16612;SDS011;8419;52.358;9.752;2023-08-12T05:21:53;12.65;;;9.50;;
16612;SDS011;8419;52.358;9.752;2023-08-12T05:24:38;15.23;;;10.30;;
16612;SDS011;8419;52.358;9.752;2023-08-12T05:27:24;15.20;;;10.05;;
16612;SDS011;8419;52.358;9.752;2023-08-12T05:30:11;13.23;;;10.23;;
16612;SDS011;8419;52.358;9.752;2023-08-12T05:32:57;15.13;;;8.80;;
16612;SDS011;8419;52.358;9.752;2023-08-12T05:35:43;11.48;;;9.07;;
16612;SDS011;8419;52.358;9.752;2023-08-12T05:38:31;12.07;;;8.68;;
16612;SDS011;8419;52.358;9.752;2023-08-12T05:41:19;12.77;;;8.48;;
16612;SDS011;8419;52.358;9.752;2023-08-12T05:44:05;11.57;;;8.73;;
16612;SDS011;8419;52.358;9.752;2023-08-12T05:46:51;14.18;;;8.68;;
16612;SDS011;8419;52.358;9.752;2023-08-12T05:49:36;12.40;;;8.98;;
16612;SDS011;8419;52.358;9.752;2023-08-12T05:52:22;11.27;;;9.25;;
16612;SDS011;8419;52.358;9.752;2023-08-12T05:55:08;10.15;;;8.55;;
16612;SDS011;8419;52.358;9.752;2023-08-12T05:57:54;14.93;;;9.13;;
16612;SDS011;8419;52.358;9.752;2023-08-12T06:00:40;14.07;;;8.60;;
16612;SDS011;8419;52.358;9.752;2023-08-12T06:03:29;16.55;;;9.52;;
16612;SDS011;8419;52.358;9.752;2023-08-12T06:06:15;13.30;;;8.68;;
16612;SDS011;8419;52.358;9.752;2023-08-12T06:09:00;12.50;;;9.15;;
16612;SDS011;8419;52.358;9.752;2023-08-12T06:11:46;12.25;;;8.90;;
16612;SDS011;8419;52.358;9.752;2023-08-12T06:14:32;14.25;;;9.23;;
16612;SDS011;8419;52.358;9.752;2023-08-12T06:17:19;12.23;;;9.45;;
16612;SDS011;8419;52.358;9.752;2023-08-12T06:20:06;13.82;;;9.13;;
16612;SDS011;8419;52.358;9.752;2023-08-12T06:22:53;14.93;;;9.57;;
16612;SDS011;8419;52.358;9.752;2023-08-12T06:25:39;15.95;;;10.07;;
16612;SDS011;8419;52.358;9.752;2023-08-12T06:28:27;11.70;;;9.15;;
16612;SDS011;8419;52.358;9.752;2023-08-12T06:31:13;9.85;;;8.75;;
16612;SDS011;8419;52.358;9.752;2023-08-12T06:33:58;11.12;;;8.35;;
16612;SDS011;8419;52.358;9.752;2023-08-12T06:36:44;14.35;;;9.30;;
16612;SDS011;8419;52.358;9.752;2023-08-12T06:39:30;12.68;;;8.70;;
16612;SDS011;8419;52.358;9.752;2023-08-12T06:42:16;9.57;;;8.27;;
16612;SDS011;8419;52.358;9.752;2023-08-12T06:45:02;15.80;;;9.05;;
16612;SDS011;8419;52.358;9.752;2023-08-12T06:47:49;13.62;;;8.82;;
16612;SDS011;8419;52.358;9.752;2023-08-12T06:50:34;19.05;;;8.73;;
16612;SDS011;8419;52.358;9.752;2023-08-12T06:53:20;10.98;;;8.05;;
16612;SDS011;8419;52.358;9.752;2023-08-12T06:56:05;11.88;;;8.90;;
16612;SDS011;8419;52.358;9.752;2023-08-12T06:58:51;9.25;;;7.03;;
16612;SDS011;8419;52.358;9.752;2023-08-12T07:01:36;12.15;;;8.10;;
16612;SDS011;8419;52.358;9.752;2023-08-12T07:04:22;10.88;;;8.05;;
16612;SDS011;8419;52.358;9.752;2023-08-12T07:07:07;11.05;;;7.47;;
16612;SDS011;8419;52.358;9.752;2023-08-12T07:09:53;8.95;;;7.72;;
16612;SDS011;8419;52.358;9.752;2023-08-12T07:12:39;13.00;;;7.30;;
16612;SDS011;8419;52.358;9.752;2023-08-12T07:15:25;12.02;;;8.35;;
16612;SDS011;8419;52.358;9.752;2023-08-12T07:18:10;10.40;;;7.15;;
16612;SDS011;8419;52.358;9.752;2023-08-12T07:20:56;14.57;;;7.60;;
16612;SDS011;8419;52.358;9.752;2023-08-12T07:23:43;11.48;;;7.07;;
16612;SDS011;8419;52.358;9.752;2023-08-12T07:26:29;14.13;;;8.15;;
16612;SDS011;8419;52.358;9.752;2023-08-12T07:29:15;11.20;;;7.53;;
16612;SDS011;8419;52.358;9.752;2023-08-12T07:32:00;11.70;;;7.32;;
16612;SDS011;8419;52.358;9.752;2023-08-12T07:34:46;11.10;;;6.75;;
16612;SDS011;8419;52.358;9.752;2023-08-12T07:37:32;10.20;;;6.85;;
16612;SDS011;8419;52.358;9.752;2023-08-12T07:40:18;11.85;;;6.60;;
16612;SDS011;8419;52.358;9.752;2023-08-12T07:43:04;10.93;;;7.03;;
16612;SDS011;8419;52.358;9.752;2023-08-12T07:45:51;9.13;;;6.10;;
16612;SDS011;8419;52.358;9.752;2023-08-12T07:48:36;7.50;;;6.22;;
16612;SDS011;8419;52.358;9.752;2023-08-12T07:51:22;9.88;;;6.53;;
16612;SDS011;8419;52.358;9.752;2023-08-12T07:54:08;10.13;;;6.00;;
16612;SDS011;8419;52.358;9.752;2023-08-12T07:56:54;16.83;;;6.53;;
16612;SDS011;8419;52.358;9.752;2023-08-12T07:59:40;10.43;;;6.40;;
16612;SDS011;8419;52.358;9.752;2023-08-12T08:02:25;8.93;;;5.50;;
16612;SDS011;8419;52.358;9.752;2023-08-12T08:05:12;9.27;;;6.18;;
16612;SDS011;8419;52.358;9.752;2023-08-12T08:07:58;11.23;;;6.47;;
16612;SDS011;8419;52.358;9.752;2023-08-12T08:10:43;11.15;;;5.97;;
16612;SDS011;8419;52.358;9.752;2023-08-12T08:13:29;8.40;;;5.68;;
16612;SDS011;8419;52.358;9.752;2023-08-12T08:16:17;9.43;;;5.70;;
16612;SDS011;8419;52.358;9.752;2023-08-12T08:19:02;14.43;;;6.43;;
16612;SDS011;8419;52.358;9.752;2023-08-12T08:21:48;8.13;;;5.82;;
16612;SDS011;8419;52.358;9.752;2023-08-12T08:24:35;16.25;;;5.78;;
16612;SDS011;8419;52.358;9.752;2023-08-12T08:27:20;12.05;;;5.97;;
16612;SDS011;8419;52.358;9.752;2023-08-12T08:30:06;8.55;;;5.82;;
16612;SDS011;8419;52.358;9.752;2023-08-12T08:32:54;7.28;;;4.97;;
16612;SDS011;8419;52.358;9.752;2023-08-12T08:35:39;8.70;;;4.47;;
16612;SDS011;8419;52.358;9.752;2023-08-12T08:38:25;10.95;;;5.43;;
16612;SDS011;8419;52.358;9.752;2023-08-12T08:41:14;6.32;;;4.85;;
16612;SDS011;8419;52.358;9.752;2023-08-12T08:44:02;11.40;;;5.32;;
16612;SDS011;8419;52.358;9.752;2023-08-12T08:46:52;7.25;;;5.20;;
16612;SDS011;8419;52.358;9.752;2023-08-12T08:49:39;9.63;;;5.65;;
16612;SDS011;8419;52.358;9.752;2023-08-12T08:52:25;6.20;;;5.00;;
16612;SDS011;8419;52.358;9.752;2023-08-12T08:55:12;9.40;;;5.40;;
16612;SDS011;8419;52.358;9.752;2023-08-12T08:57:58;7.85;;;4.90;;
16612;SDS011;8419;52.358;9.752;2023-08-12T09:00:43;8.80;;;6.00;;
16612;SDS011;8419;52.358;9.752;2023-08-12T09:03:29;6.78;;;4.72;;
16612;SDS011;8419;52.358;9.752;2023-08-12T09:06:15;6.03;;;4.57;;
16612;SDS011;8419;52.358;9.752;2023-08-12T09:09:03;5.82;;;4.65;;
16612;SDS011;8419;52.358;9.752;2023-08-12T09:11:50;5.68;;;4.80;;
16612;SDS011;8419;52.358;9.752;2023-08-12T09:14:38;6.57;;;4.80;;
16612;SDS011;8419;52.358;9.752;2023-08-12T09:17:24;7.30;;;5.20;;
16612;SDS011;8419;52.358;9.752;2023-08-12T09:20:12;13.27;;;5.35;;
16612;SDS011;8419;52.358;9.752;2023-08-12T09:22:57;8.10;;;4.53;;
16612;SDS011;8419;52.358;9.752;2023-08-12T09:25:44;6.03;;;4.70;;
16612;SDS011;8419;52.358;9.752;2023-08-12T09:28:30;6.60;;;4.40;;
16612;SDS011;8419;52.358;9.752;2023-08-12T09:31:23;6.22;;;4.93;;
16612;SDS011;8419;52.358;9.752;2023-08-12T09:34:09;6.75;;;4.40;;
16612;SDS011;8419;52.358;9.752;2023-08-12T09:36:56;6.53;;;4.32;;
16612;SDS011;8419;52.358;9.752;2023-08-12T09:39:41;9.40;;;4.60;;
16612;SDS011;8419;52.358;9.752;2023-08-12T09:42:28;6.15;;;4.40;;
16612;SDS011;8419;52.358;9.752;2023-08-12T09:45:14;5.40;;;4.65;;
16612;SDS011;8419;52.358;9.752;2023-08-12T09:47:59;5.22;;;4.68;;
16612;SDS011;8419;52.358;9.752;2023-08-12T09:50:45;8.07;;;4.55;;
16612;SDS011;8419;52.358;9.752;2023-08-12T09:53:31;6.62;;;4.40;;
16612;SDS011;8419;52.358;9.752;2023-08-12T09:56:18;6.80;;;4.07;;
16612;SDS011;8419;52.358;9.752;2023-08-12T09:59:06;6.50;;;4.75;;
16612;SDS011;8419;52.358;9.752;2023-08-12T10:01:53;5.15;;;3.95;;
16612;SDS011;8419;52.358;9.752;2023-08-12T10:04:41;6.18;;;4.22;;
16612;SDS011;8419;52.358;9.752;2023-08-12T10:07:29;5.57;;;4.47;;
16612;SDS011;8419;52.358;9.752;2023-08-12T10:10:15;7.35;;;4.80;;
16612;SDS011;8419;52.358;9.752;2023-08-12T10:13:01;5.00;;;4.47;;
16612;SDS011;8419;52.358;9.752;2023-08-12T10:15:51;7.32;;;4.07;;
16612;SDS011;8419;52.358;9.752;2023-08-12T10:18:37;4.95;;;4.18;;
16612;SDS011;8419;52.358;9.752;2023-08-12T10:21:26;4.72;;;4.18;;
16612;SDS011;8419;52.358;9.752;2023-08-12T10:24:15;5.07;;;4.57;;
16612;SDS011;8419;52.358;9.752;2023-08-12T10:27:02;5.50;;;4.18;;
16612;SDS011;8419;52.358;9.752;2023-08-12T10:29:50;4.78;;;4.22;;
16612;SDS011;8419;52.358;9.752;2023-08-12T10:32:38;4.85;;;4.30;;
16612;SDS011;8419;52.358;9.752;2023-08-12T10:35:24;4.80;;;4.25;;
16612;SDS011;8419;52.358;9.752;2023-08-12T10:38:27;6.28;;;4.28;;
16612;SDS011;8419;52.358;9.752;2023-08-12T10:41:17;5.50;;;4.37;;
16612;SDS011;8419;52.358;9.752;2023-08-12T10:44:05;4.60;;;4.20;;
16612;SDS011;8419;52.358;9.752;2023-08-12T10:46:51;7.82;;;4.37;;
16612;SDS011;8419;52.358;9.752;2023-08-12T10:49:38;5.20;;;4.70;;
16612;SDS011;8419;52.358;9.752;2023-08-12T10:52:27;4.55;;;3.85;;
16612;SDS011;8419;52.358;9.752;2023-08-12T10:55:18;5.25;;;3.75;;
16612;SDS011;8419;52.358;9.752;2023-08-12T10:58:05;5.03;;;3.90;;
16612;SDS011;8419;52.358;9.752;2023-08-12T11:00:54;4.62;;;3.67;;
16612;SDS011;8419;52.358;9.752;2023-08-12T11:03:42;8.00;;;3.58;;
16612;SDS011;8419;52.358;9.752;2023-08-12T11:06:28;4.15;;;2.87;;
16612;SDS011;8419;52.358;9.752;2023-08-12T11:09:14;5.28;;;3.25;;
16612;SDS011;8419;52.358;9.752;2023-08-12T11:11:59;5.05;;;3.15;;
16612;SDS011;8419;52.358;9.752;2023-08-12T11:14:48;4.28;;;3.10;;
16612;SDS011;8419;52.358;9.752;2023-08-12T11:17:38;3.00;;;2.75;;
16612;SDS011;8419;52.358;9.752;2023-08-12T11:20:26;2.75;;;2.55;;
16612;SDS011;8419;52.358;9.752;2023-08-12T11:23:13;2.87;;;2.67;;
16612;SDS011;8419;52.358;9.752;2023-08-12T11:25:59;3.35;;;2.80;;
16612;SDS011;8419;52.358;9.752;2023-08-12T11:28:47;4.57;;;3.17;;
16612;SDS011;8419;52.358;9.752;2023-08-12T11:31:34;4.10;;;3.10;;
16612;SDS011;8419;52.358;9.752;2023-08-12T11:34:21;3.00;;;2.60;;
16612;SDS011;8419;52.358;9.752;2023-08-12T11:37:06;5.60;;;2.72;;
16612;SDS011;8419;52.358;9.752;2023-08-12T11:39:52;3.20;;;2.78;;
16612;SDS011;8419;52.358;9.752;2023-08-12T11:42:38;3.20;;;2.75;;
16612;SDS011;8419;52.358;9.752;2023-08-12T11:45:26;5.43;;;2.65;;
16612;SDS011;8419;52.358;9.752;2023-08-12T11:48:12;3.87;;;2.53;;
16612;SDS011;8419;52.358;9.752;2023-08-12T11:50:58;2.85;;;2.50;;
16612;SDS011;8419;52.358;9.752;2023-08-12T11:53:45;3.83;;;2.42;;
16612;SDS011;8419;52.358;9.752;2023-08-12T11:56:31;3.90;;;2.80;;
16612;SDS011;8419;52.358;9.752;2023-08-12T11:59:18;4.00;;;2.80;;
16612;SDS011;8419;52.358;9.752;2023-08-12T12:02:05;3.60;;;2.72;;
16612;SDS011;8419;52.358;9.752;2023-08-12T12:04:51;3.00;;;2.67;;
16612;SDS011;8419;52.358;9.752;2023-08-12T12:07:37;2.58;;;2.37;;
16612;SDS011;8419;52.358;9.752;2023-08-12T12:10:26;4.22;;;3.15;;
16612;SDS011;8419;52.358;9.752;2023-08-12T12:13:13;5.15;;;3.25;;
16612;SDS011;8419;52.358;9.752;2023-08-12T12:15:59;4.85;;;3.05;;
16612;SDS011;8419;52.358;9.752;2023-08-12T12:18:45;3.25;;;2.70;;
16612;SDS011;8419;52.358;9.752;2023-08-12T12:21:30;6.85;;;3.25;;
16612;SDS011;8419;52.358;9.752;2023-08-12T12:24:22;3.70;;;2.67;;
16612;SDS011;8419;52.358;9.752;2023-08-12T12:27:14;4.78;;;2.80;;
16612;SDS011;8419;52.358;9.752;2023-08-12T12:30:01;3.35;;;2.80;;
16612;SDS011;8419;52.358;9.752;2023-08-12T12:32:47;17.12;;;4.00;;
16612;SDS011;8419;52.358;9.752;2023-08-12T12:35:33;7.80;;;4.97;;
16612;SDS011;8419;52.358;9.752;2023-08-12T12:38:18;3.42;;;2.20;;
16612;SDS011;8419;52.358;9.752;2023-08-12T12:41:04;3.33;;;2.25;;
16612;SDS011;8419;52.358;9.752;2023-08-12T12:43:50;3.83;;;3.10;;
16612;SDS011;8419;52.358;9.752;2023-08-12T12:46:36;3.10;;;2.37;;
16612;SDS011;8419;52.358;9.752;2023-08-12T12:49:21;3.60;;;2.05;;
16612;SDS011;8419;52.358;9.752;2023-08-12T12:52:07;2.15;;;1.95;;
16612;SDS011;8419;52.358;9.752;2023-08-12T12:54:52;2.05;;;1.85;;
16612;SDS011;8419;52.358;9.752;2023-08-12T12:57:38;4.78;;;1.87;;
16612;SDS011;8419;52.358;9.752;2023-08-12T13:00:24;3.12;;;1.70;;
16612;SDS011;8419;52.358;9.752;2023-08-12T13:03:10;1.83;;;1.73;;
16612;SDS011;8419;52.358;9.752;2023-08-12T13:05:55;2.70;;;2.12;;
16612;SDS011;8419;52.358;9.752;2023-08-12T13:08:42;2.58;;;1.60;;
16612;SDS011;8419;52.358;9.752;2023-08-12T13:11:28;1.60;;;1.50;;
16612;SDS011;8419;52.358;9.752;2023-08-12T13:14:14;2.00;;;1.73;;
16612;SDS011;8419;52.358;9.752;2023-08-12T13:17:04;1.65;;;1.55;;
16612;SDS011;8419;52.358;9.752;2023-08-12T13:19:49;1.40;;;1.30;;
16612;SDS011;8419;52.358;9.752;2023-08-12T13:22:35;1.90;;;1.80;;
16612;SDS011;8419;52.358;9.752;2023-08-12T13:25:20;1.83;;;1.55;;
16612;SDS011;8419;52.358;9.752;2023-08-12T13:28:06;1.98;;;1.87;;
16612;SDS011;8419;52.358;9.752;2023-08-12T13:30:52;3.50;;;2.30;;
16612;SDS011;8419;52.358;9.752;2023-08-12T13:33:37;2.10;;;1.90;;
16612;SDS011;8419;52.358;9.752;2023-08-12T13:36:23;1.75;;;1.65;;
16612;SDS011;8419;52.358;9.752;2023-08-12T13:39:09;2.10;;;1.90;;
16612;SDS011;8419;52.358;9.752;2023-08-12T13:41:56;4.32;;;1.48;;
16612;SDS011;8419;52.358;9.752;2023-08-12T13:44:41;1.70;;;1.30;;
16612;SDS011;8419;52.358;9.752;2023-08-12T13:47:27;2.05;;;1.30;;
16612;SDS011;8419;52.358;9.752;2023-08-12T13:50:12;1.33;;;1.23;;
16612;SDS011;8419;52.358;9.752;2023-08-12T13:52:58;1.90;;;1.52;;
16612;SDS011;8419;52.358;9.752;2023-08-12T13:55:45;2.78;;;1.40;;
16612;SDS011;8419;52.358;9.752;2023-08-12T13:58:30;1.30;;;0.88;;
16612;SDS011;8419;52.358;9.752;2023-08-12T14:01:16;1.10;;;1.00;;
16612;SDS011;8419;52.358;9.752;2023-08-12T14:04:02;0.98;;;0.90;;
16612;SDS011;8419;52.358;9.752;2023-08-12T14:06:48;1.52;;;0.90;;
16612;SDS011;8419;52.358;9.752;2023-08-12T14:09:34;3.03;;;1.20;;
16612;SDS011;8419;52.358;9.752;2023-08-12T14:12:20;1.00;;;0.75;;
16612;SDS011;8419;52.358;9.752;2023-08-12T14:15:06;1.17;;;1.08;;
16612;SDS011;8419;52.358;9.752;2023-08-12T14:17:53;0.88;;;0.88;;
16612;SDS011;8419;52.358;9.752;2023-08-12T14:20:38;0.40;;;0.40;;
16612;SDS011;8419;52.358;9.752;2023-08-12T14:23:24;1.45;;;1.12;;
16612;SDS011;8419;52.358;9.752;2023-08-12T14:26:10;1.30;;;0.90;;
16612;SDS011;8419;52.358;9.752;2023-08-12T14:28:55;0.70;;;0.70;;
16612;SDS011;8419;52.358;9.752;2023-08-12T14:31:41;0.80;;;0.80;;
16612;SDS011;8419;52.358;9.752;2023-08-12T14:34:27;0.80;;;0.80;;
16612;SDS011;8419;52.358;9.752;2023-08-12T14:37:12;1.65;;;1.00;;
16612;SDS011;8419;52.358;9.752;2023-08-12T14:39:58;1.50;;;1.10;;
16612;SDS011;8419;52.358;9.752;2023-08-12T14:42:43;1.20;;;0.98;;
16612;SDS011;8419;52.358;9.752;2023-08-12T14:45:29;0.93;;;0.88;;
16612;SDS011;8419;52.358;9.752;2023-08-12T14:48:15;1.15;;;0.70;;
16612;SDS011;8419;52.358;9.752;2023-08-12T14:51:03;0.95;;;0.90;;
16612;SDS011;8419;52.358;9.752;2023-08-12T14:53:49;0.80;;;0.80;;
16612;SDS011;8419;52.358;9.752;2023-08-12T14:56:35;1.35;;;0.60;;
16612;SDS011;8419;52.358;9.752;2023-08-12T14:59:20;1.00;;;0.62;;
16612;SDS011;8419;52.358;9.752;2023-08-12T15:02:06;0.80;;;0.60;;
16612;SDS011;8419;52.358;9.752;2023-08-12T15:04:53;0.88;;;0.70;;
16612;SDS011;8419;52.358;9.752;2023-08-12T15:07:39;2.65;;;1.05;;
16612;SDS011;8419;52.358;9.752;2023-08-12T15:10:24;1.15;;;1.02;;
16612;SDS011;8419;52.358;9.752;2023-08-12T15:13:13;2.35;;;1.02;;
16612;SDS011;8419;52.358;9.752;2023-08-12T15:15:58;1.27;;;1.17;;
16612;SDS011;8419;52.358;9.752;2023-08-12T15:18:43;0.90;;;0.90;;
16612;SDS011;8419;52.358;9.752;2023-08-12T15:21:30;1.10;;;0.80;;
16612;SDS011;8419;52.358;9.752;2023-08-12T15:24:16;4.18;;;1.40;;
16612;SDS011;8419;52.358;9.752;2023-08-12T15:27:02;1.65;;;1.00;;
16612;SDS011;8419;52.358;9.752;2023-08-12T15:29:48;1.80;;;1.70;;
16612;SDS011;8419;52.358;9.752;2023-08-12T15:32:33;1.92;;;1.73;;
16612;SDS011;8419;52.358;9.752;2023-08-12T15:35:19;4.45;;;2.05;;
16612;SDS011;8419;52.358;9.752;2023-08-12T15:38:05;1.90;;;1.70;;
16612;SDS011;8419;52.358;9.752;2023-08-12T15:40:50;2.12;;;1.92;;
16612;SDS011;8419;52.358;9.752;2023-08-12T15:43:36;4.20;;;1.80;;
16612;SDS011;8419;52.358;9.752;2023-08-12T15:46:22;1.92;;;1.50;;
16612;SDS011;8419;52.358;9.752;2023-08-12T15:49:08;1.40;;;1.30;;
16612;SDS011;8419;52.358;9.752;2023-08-12T15:51:55;1.40;;;1.30;;
16612;SDS011;8419;52.358;9.752;2023-08-12T15:54:40;2.17;;;1.20;;
16612;SDS011;8419;52.358;9.752;2023-08-12T15:57:26;3.05;;;1.08;;
16612;SDS011;8419;52.358;9.752;2023-08-12T16:00:12;1.27;;;1.17;;
16612;SDS011;8419;52.358;9.752;2023-08-12T16:02:57;2.22;;;1.05;;
16612;SDS011;8419;52.358;9.752;2023-08-12T16:05:43;1.65;;;1.33;;
16612;SDS011;8419;52.358;9.752;2023-08-12T16:08:29;1.70;;;1.10;;
16612;SDS011;8419;52.358;9.752;2023-08-12T16:11:14;1.65;;;1.00;;
16612;SDS011;8419;52.358;9.752;2023-08-12T16:14:00;1.75;;;1.10;;
16612;SDS011;8419;52.358;9.752;2023-08-12T16:16:46;2.58;;;1.10;;
16612;SDS011;8419;52.358;9.752;2023-08-12T16:19:31;2.42;;;1.00;;
16612;SDS011;8419;52.358;9.752;2023-08-12T16:22:17;1.10;;;0.98;;
16612;SDS011;8419;52.358;9.752;2023-08-12T16:25:04;1.25;;;1.10;;
16612;SDS011;8419;52.358;9.752;2023-08-12T16:27:51;1.52;;;1.30;;
16612;SDS011;8419;52.358;9.752;2023-08-12T16:30:37;1.67;;;1.05;;
16612;SDS011;8419;52.358;9.752;2023-08-12T16:33:22;1.20;;;0.85;;
16612;SDS011;8419;52.358;9.752;2023-08-12T16:36:08;1.60;;;1.20;;
16612;SDS011;8419;52.358;9.752;2023-08-12T16:38:54;3.03;;;1.40;;
16612;SDS011;8419;52.358;9.752;2023-08-12T16:41:39;1.92;;;1.30;;
16612;SDS011;8419;52.358;9.752;2023-08-12T16:44:26;1.73;;;1.62;;
16612;SDS011;8419;52.358;9.752;2023-08-12T16:47:12;1.45;;;1.33;;
16612;SDS011;8419;52.358;9.752;2023-08-12T16:49:57;2.45;;;1.65;;
16612;SDS011;8419;52.358;9.752;2023-08-12T16:52:43;1.55;;;1.45;;